createdAt,value
2023-05-10T00:02:51.612Z,99064.09
2023-05-10T00:06:53.897Z,99068.81
2023-05-10T00:10:55.654Z,99075.19
2023-05-10T00:14:57.300Z,99067.13
2023-05-10T00:18:59.244Z,99070.72
2023-05-10T00:23:03.501Z,99072.09
2023-05-10T00:38:02.145Z,99072.59
2023-05-10T00:47:50.858Z,99084.44
2023-05-10T00:52:05.849Z,99091.38
2023-05-10T00:56:08.258Z,99086.09
2023-05-10T01:00:12.407Z,99089.72
2023-05-10T01:08:51.677Z,99086.72
2023-05-10T01:13:00.795Z,99082.28
2023-05-10T01:17:33.645Z,99083.16
2023-05-10T01:22:06.602Z,99085.09
2023-05-10T01:26:55.533Z,99088.44
2023-05-10T01:31:09.397Z,99098.38
2023-05-10T01:35:24.066Z,99092.59
2023-05-10T01:39:29.865Z,99100.06
2023-05-10T01:43:41.211Z,99102.84
2023-05-10T01:47:51.466Z,99107.25
2023-05-10T01:51:58.202Z,99113.34
2023-05-10T01:56:02.891Z,99099.53
2023-05-10T02:00:06.196Z,99113.09
2023-05-10T02:04:18.759Z,99112.81
2023-05-10T02:08:23.159Z,99115.59
2023-05-10T02:12:26.229Z,99116.16
2023-05-10T02:16:32.030Z,99115.59
2023-05-10T02:20:36.224Z,99122.50
2023-05-10T02:24:39.093Z,99127.22
2023-05-10T02:28:42.017Z,99134.69
2023-05-10T02:32:44.320Z,99140.78
2023-05-10T02:36:46.643Z,99131.09
2023-05-10T02:40:49.338Z,99129.16
2023-05-10T02:44:56.061Z,99136.63
2023-05-10T02:48:57.826Z,99128.88
2023-05-10T02:53:11.458Z,99133.31
2023-05-10T02:57:20.484Z,99127.22
2023-05-10T03:01:22.291Z,99134.97
2023-05-10T03:05:24.558Z,99131.94
2023-05-10T03:09:36.306Z,99127.22
2023-05-10T03:13:44.529Z,99132.50
2023-05-10T03:18:01.681Z,99135.53
2023-05-10T03:22:08.901Z,99137.75
2023-05-10T03:26:24.992Z,99148.53
2023-05-10T03:30:29.247Z,99135.81
2023-05-10T03:34:32.631Z,99146.63
2023-05-10T03:38:34.475Z,99142.72
2023-05-10T03:42:37.177Z,99146.63
2023-05-10T03:46:39.025Z,99143.28
2023-05-10T03:50:41.168Z,99149.38
2023-05-10T03:54:42.993Z,99141.09
2023-05-10T03:58:45.119Z,99144.97
2023-05-10T04:02:47.222Z,99150.19
2023-05-10T04:06:54.215Z,99146.88
2023-05-10T04:16:05.436Z,99148.50
2023-05-10T04:20:07.847Z,99142.16
2023-05-10T04:24:09.605Z,99153.47
2023-05-10T04:28:11.370Z,99158.72
2023-05-10T04:32:13.402Z,99164.25
2023-05-10T04:36:15.899Z,99163.69
2023-05-10T04:40:19.049Z,99169.50
2023-05-10T04:44:21.156Z,99173.91
2023-05-10T04:48:23.499Z,99183.28
2023-05-10T04:52:25.231Z,99186.91
2023-05-10T05:06:22.168Z,99199.31
2023-05-10T05:10:25.144Z,99203.47
2023-05-10T05:14:27.681Z,99218.13
2023-05-10T05:18:31.250Z,99215.59
2023-05-10T05:22:33.079Z,99211.19
2023-05-10T05:26:34.920Z,99211.16
2023-05-10T05:30:36.769Z,99215.03
2023-05-10T05:34:38.554Z,99213.38
2023-05-10T05:38:40.268Z,99214.44
2023-05-10T05:42:42.464Z,99225.53
2023-05-10T05:46:44.272Z,99223.81
2023-05-10T05:50:46.813Z,99222.41
2023-05-10T05:54:48.581Z,99235.06
2023-05-10T05:58:50.823Z,99231.66
2023-05-10T06:02:52.521Z,99235.22
2023-05-10T06:06:54.212Z,99238.53
2023-05-10T06:10:55.953Z,99243.50
2023-05-10T06:14:57.652Z,99253.44
2023-05-10T06:18:59.292Z,99262.25
2023-05-10T06:23:01.019Z,99257.69
2023-05-10T06:27:03.191Z,99264.25
2023-05-10T06:31:05.424Z,99264.22
2023-05-10T06:35:07.960Z,99274.16
2023-05-10T06:39:13.185Z,99271.06
2023-05-10T06:43:15.529Z,99270.25
2023-05-10T06:47:17.237Z,99266.84
2023-05-10T06:51:20.995Z,99271.47
2023-05-10T06:55:22.879Z,99265.91
2023-05-10T06:59:25.270Z,99274.88
2023-05-10T07:03:27.169Z,99277.94
2023-05-10T07:07:28.995Z,99276.72
2023-05-10T07:11:30.646Z,99280.31
2023-05-10T07:15:32.333Z,99284.31
2023-05-10T07:19:34.083Z,99283.03
2023-05-10T07:23:35.830Z,99286.81
2023-05-10T07:27:37.760Z,99286.16
2023-05-10T07:31:39.513Z,99290.72
2023-05-10T07:35:41.350Z,99284.50
2023-05-10T07:39:43.021Z,99295.22
2023-05-10T07:43:45.075Z,99293.97
2023-05-10T07:47:46.928Z,99303.94
2023-05-10T07:51:49.039Z,99290.66
2023-05-10T07:55:58.124Z,99299.53
2023-05-10T08:00:01.831Z,99313.09
2023-05-10T08:04:03.667Z,99302.91
2023-05-10T08:08:05.722Z,99312.28
2023-05-10T08:12:07.494Z,99312.28
2023-05-10T08:16:09.369Z,99315.19
2023-05-10T08:20:11.284Z,99308.25
2023-05-10T08:24:13.087Z,99314.13
2023-05-10T08:28:14.822Z,99304.78
2023-05-10T08:32:16.713Z,99321.13
2023-05-10T08:36:22.812Z,99319.19
2023-05-10T08:40:27.224Z,99321.63
2023-05-10T08:44:29.771Z,99330.16
2023-05-10T08:48:35.842Z,99324.72
2023-05-10T08:52:41.209Z,99325.78
2023-05-10T08:56:43.625Z,99322.16
2023-05-10T09:00:45.528Z,99322.28
2023-05-10T09:04:47.991Z,99330.47
2023-05-10T09:08:49.862Z,99335.50
2023-05-10T09:12:52.909Z,99335.97
2023-05-10T09:16:56.334Z,99338.16
2023-05-10T09:20:58.114Z,99333.09
2023-05-10T09:25:13.214Z,99332.38
2023-05-10T09:29:17.483Z,99334.88
2023-05-10T09:33:19.624Z,99335.72
2023-05-10T09:37:30.736Z,99343.78
2023-05-10T09:41:32.460Z,99343.44
2023-05-10T09:45:38.582Z,99346.06
2023-05-10T09:49:42.746Z,99341.75
2023-05-10T09:53:44.404Z,99358.81
2023-05-10T09:57:47.103Z,99356.44
2023-05-10T10:01:54.343Z,99362.00
2023-05-10T10:05:57.084Z,99364.50
2023-05-10T10:10:10.135Z,99367.44
2023-05-10T10:14:13.604Z,99366.03
2023-05-10T10:18:18.133Z,99367.50
2023-05-10T10:22:23.495Z,99370.00
2023-05-10T10:26:26.216Z,99360.78
2023-05-10T10:30:34.024Z,99369.44
2023-05-10T10:34:36.025Z,99372.53
2023-05-10T10:39:04.734Z,99370.16
2023-05-10T10:43:27.986Z,99368.91
2023-05-10T10:47:32.183Z,99374.63
2023-05-10T10:51:33.968Z,99375.75
2023-05-10T10:55:35.796Z,99380.00
2023-05-10T10:59:37.780Z,99374.53
2023-05-10T11:04:16.138Z,99390.16
2023-05-10T11:08:27.532Z,99392.22
2023-05-10T11:12:30.617Z,99392.97
2023-05-10T11:16:46.364Z,99396.09
2023-05-10T11:21:20.199Z,99401.38
2023-05-10T11:25:28.122Z,99392.16
2023-05-10T11:29:29.961Z,99386.91
2023-05-10T11:33:31.598Z,99393.31
2023-05-10T11:37:35.356Z,99400.88
2023-05-10T11:41:37.103Z,99393.22
2023-05-10T11:45:39.306Z,99397.47
2023-05-10T11:49:44.889Z,99389.91
2023-05-10T11:53:46.775Z,99394.94
2023-05-10T11:57:48.650Z,99399.00
2023-05-10T12:01:50.554Z,99395.44
2023-05-10T12:05:52.628Z,99390.19
2023-05-10T12:10:07.683Z,99392.97
2023-05-10T12:14:11.021Z,99400.09
2023-05-10T12:18:14.667Z,99398.47
2023-05-10T12:22:16.655Z,99399.09
2023-05-10T12:26:18.835Z,99390.69
2023-05-10T12:30:25.319Z,99392.13
2023-05-10T12:34:35.096Z,99394.13
2023-05-10T12:38:44.227Z,99402.09
2023-05-10T12:42:46.273Z,99410.00
2023-05-10T12:46:48.149Z,99412.06
2023-05-10T12:50:49.980Z,99413.28
2023-05-10T12:54:51.684Z,99405.03
2023-05-10T12:58:53.386Z,99410.28
2023-05-10T13:02:55.250Z,99404.84
2023-05-10T13:07:00.031Z,99413.56
2023-05-10T13:11:04.418Z,99417.03
2023-05-10T13:15:07.839Z,99407.06
2023-05-10T13:19:09.737Z,99429.50
2023-05-10T13:23:11.787Z,99428.97
2023-05-10T13:27:13.549Z,99419.69
2023-05-10T13:31:15.652Z,99419.38
2023-05-10T13:35:17.346Z,99408.16
2023-05-10T13:39:19.236Z,99400.91
2023-05-10T13:43:21.302Z,99411.75
2023-05-10T13:47:24.625Z,99405.19
2023-05-10T13:51:28.170Z,99402.41
2023-05-10T13:55:29.909Z,99398.09
2023-05-10T13:59:32.870Z,99393.13
2023-05-10T14:03:34.962Z,99385.53
2023-05-10T14:07:36.793Z,99394.06
2023-05-10T14:11:42.802Z,99383.00
2023-05-10T14:15:44.592Z,99382.75
2023-05-10T14:19:46.282Z,99391.72
2023-05-10T14:23:48.221Z,99398.47
2023-05-10T14:27:50.134Z,99399.63
2023-05-10T14:31:53.269Z,99391.34
2023-05-10T14:35:56.039Z,99392.28
2023-05-10T14:39:57.952Z,99396.03
2023-05-10T14:43:59.822Z,99396.09
2023-05-10T14:48:01.760Z,99376.19
2023-05-10T14:52:04.265Z,99378.94
2023-05-10T14:56:08.194Z,99380.72
2023-05-10T15:00:10.336Z,99384.69
2023-05-10T15:04:14.608Z,99381.22
2023-05-10T15:08:16.871Z,99381.38
2023-05-10T15:12:19.439Z,99381.78
2023-05-10T15:16:21.254Z,99379.00
2023-05-10T15:20:23.144Z,99380.31
2023-05-10T15:24:24.910Z,99394.78
2023-05-10T15:28:28.590Z,99384.56
2023-05-10T15:32:30.398Z,99384.59
2023-05-10T15:36:33.028Z,99396.59
2023-05-10T15:40:36.182Z,99398.38
2023-05-10T15:44:39.522Z,99408.41
2023-05-10T15:48:41.161Z,99410.38
2023-05-10T15:52:42.969Z,99405.63
2023-05-10T15:56:44.799Z,99405.91
2023-05-10T16:00:46.474Z,99407.47
2023-05-10T16:04:48.154Z,99408.31
2023-05-10T16:08:54.108Z,99410.47
2023-05-10T16:12:56.491Z,99416.44
2023-05-10T16:16:58.350Z,99419.88
2023-05-10T16:21:01.085Z,99425.84
2023-05-10T16:25:02.708Z,99422.69
2023-05-10T16:29:04.404Z,99420.59
2023-05-10T16:33:06.158Z,99424.38
2023-05-10T16:37:07.914Z,99435.09
2023-05-10T16:41:11.670Z,99429.50
2023-05-10T16:45:13.472Z,99426.34
2023-05-10T16:49:15.363Z,99428.38
2023-05-10T16:53:17.071Z,99424.59
2023-05-10T16:57:19.394Z,99435.50
2023-05-10T17:01:22.009Z,99431.78
2023-05-10T17:05:24.774Z,99429.63
2023-05-10T17:09:26.444Z,99432.31
2023-05-10T17:13:28.405Z,99432.31
2023-05-10T17:17:30.229Z,99426.44
2023-05-10T17:21:32.237Z,99434.00
2023-05-10T17:25:35.487Z,99436.28
2023-05-10T17:29:37.537Z,99437.72
2023-05-10T17:33:39.382Z,99440.53
2023-05-10T17:37:41.666Z,99438.66
2023-05-10T17:41:43.306Z,99438.13
2023-05-10T17:45:48.256Z,99433.28
2023-05-10T17:49:50.051Z,99435.53
2023-05-10T17:53:52.560Z,99444.38
2023-05-10T17:57:54.343Z,99447.03
2023-05-10T18:01:56.129Z,99451.91
2023-05-10T18:05:58.154Z,99451.28
2023-05-10T18:10:01.263Z,99445.03
2023-05-10T18:14:03.024Z,99450.75
2023-05-10T18:18:07.256Z,99454.75
2023-05-10T18:22:10.894Z,99442.94
2023-05-10T18:26:13.338Z,99449.31
2023-05-10T18:30:15.278Z,99450.66
2023-05-10T18:34:17.193Z,99449.97
2023-05-10T18:38:19.608Z,99452.72
2023-05-10T18:42:21.309Z,99457.66
2023-05-10T18:46:23.045Z,99447.00
2023-05-10T18:50:24.835Z,99452.19
2023-05-10T18:54:27.034Z,99457.91
2023-05-10T18:58:29.525Z,99460.25
2023-05-10T19:02:31.475Z,99463.69
2023-05-10T19:06:34.009Z,99467.13
2023-05-10T19:10:35.927Z,99466.34
2023-05-10T19:14:37.793Z,99465.28
2023-05-10T19:18:41.205Z,99474.47
2023-05-10T19:22:58.160Z,99475.88
2023-05-10T19:27:05.191Z,99479.25
2023-05-10T19:31:07.782Z,99481.75
2023-05-10T19:35:10.503Z,99485.06
2023-05-10T19:39:13.360Z,99482.34
2023-05-10T19:43:15.362Z,99481.22
2023-05-10T19:47:17.186Z,99490.63
2023-05-10T19:51:19.079Z,99489.81
2023-05-10T19:55:29.800Z,99493.41
2023-05-10T19:59:31.716Z,99500.03
2023-05-10T20:03:34.897Z,99504.47
2023-05-10T20:07:37.325Z,99506.94
2023-05-10T20:11:39.033Z,99508.31
2023-05-10T20:15:40.955Z,99507.16
2023-05-10T20:19:42.897Z,99514.13
2023-05-10T20:23:44.661Z,99519.63
2023-05-10T20:27:46.471Z,99524.31
2023-05-10T20:31:51.687Z,99527.59
2023-05-10T20:35:53.478Z,99523.16
2023-05-10T20:39:57.193Z,99525.66
2023-05-10T20:44:00.230Z,99522.06
2023-05-10T20:48:03.213Z,99530.34
2023-05-10T20:52:05.431Z,99527.59
2023-05-10T20:56:09.198Z,99529.78
2023-05-10T21:00:11.656Z,99526.44
2023-05-10T21:04:13.469Z,99525.09
2023-05-10T21:08:15.288Z,99537.78
2023-05-10T21:12:17.060Z,99528.06
2023-05-10T21:16:18.878Z,99539.13
2023-05-10T21:20:21.073Z,99534.41
2023-05-10T21:24:23.547Z,99525.25
2023-05-10T21:28:25.351Z,99528.31
2023-05-10T21:32:27.474Z,99525.81
2023-05-10T21:36:29.327Z,99528.00
2023-05-10T21:40:31.016Z,99533.22
2023-05-10T21:44:35.924Z,99531.28
2023-05-10T21:48:39.676Z,99534.84
2023-05-10T21:52:41.409Z,99537.56
2023-05-10T21:56:43.542Z,99535.06
2023-05-10T22:00:45.343Z,99539.47
2023-05-10T22:04:47.060Z,99539.72
2023-05-10T22:08:49.118Z,99535.56
2023-05-10T22:12:51.775Z,99543.78
2023-05-10T22:16:53.628Z,99536.63
2023-05-10T22:20:55.469Z,99542.41
2023-05-10T22:24:57.237Z,99537.41
2023-05-10T22:28:58.912Z,99545.66
2023-05-10T22:33:00.745Z,99546.19
2023-05-10T22:37:04.043Z,99551.41
2023-05-10T22:41:05.788Z,99540.31
2023-05-10T22:45:08.263Z,99546.34
2023-05-10T22:49:10.187Z,99539.69
2023-05-10T22:53:11.928Z,99542.97
2023-05-10T22:57:13.905Z,99536.06
2023-05-10T23:01:15.994Z,99542.38
2023-05-10T23:05:18.075Z,99545.09
2023-05-10T23:09:19.784Z,99550.03
2023-05-10T23:13:21.950Z,99551.38
2023-05-10T23:17:23.675Z,99551.66
2023-05-10T23:21:25.464Z,99560.19
2023-05-10T23:25:27.328Z,99557.13
2023-05-10T23:29:29.086Z,99558.25
2023-05-10T23:33:30.784Z,99554.06
2023-05-10T23:37:32.596Z,99560.13
2023-05-10T23:41:34.705Z,99558.94
2023-05-10T23:45:38.169Z,99555.88
2023-05-10T23:49:42.322Z,99557.25
2023-05-10T23:53:44.012Z,99552.00
2023-05-10T23:57:45.728Z,99552.25
